createdAt,value
2023-04-18T00:00:52.889Z,88458.00
2023-04-18T00:01:52.972Z,88461.00
2023-04-18T00:02:53.147Z,88461.00
2023-04-18T00:03:53.268Z,88458.00
2023-04-18T00:04:53.143Z,88458.00
2023-04-18T00:05:52.997Z,88458.00
2023-04-18T00:06:53.024Z,88456.00
2023-04-18T00:07:53.044Z,88454.00
2023-04-18T00:08:53.073Z,88454.00
2023-04-18T00:09:53.066Z,88454.00
2023-04-18T00:10:53.112Z,88456.00
2023-04-18T00:11:53.105Z,88454.00
2023-04-18T00:12:53.105Z,88454.00
2023-04-18T00:13:53.139Z,88456.00
2023-04-18T00:14:53.139Z,88456.00
2023-04-18T00:15:53.155Z,88456.00
2023-04-18T00:16:53.221Z,88454.00
2023-04-18T00:17:53.295Z,88456.00
2023-04-18T00:18:53.211Z,88454.00
2023-04-18T00:19:53.237Z,88454.00
2023-04-18T00:20:53.249Z,88454.00
2023-04-18T00:21:53.329Z,88450.00
2023-04-18T00:22:53.295Z,88450.00
2023-04-18T00:23:53.348Z,88450.00
2023-04-18T00:24:53.365Z,88450.00
2023-04-18T00:25:53.368Z,88448.00
2023-04-18T00:26:53.395Z,88448.00
2023-04-18T00:27:53.446Z,88446.00
2023-04-18T00:28:53.446Z,88446.00
2023-04-18T00:29:53.466Z,88446.00
2023-04-18T00:30:53.516Z,88446.00
2023-04-18T00:31:53.550Z,88444.00
2023-04-18T00:32:53.456Z,88444.00
2023-04-18T00:33:53.407Z,88444.00
2023-04-18T00:34:53.374Z,88446.00
2023-04-18T00:35:53.340Z,88446.00
2023-04-18T00:36:53.316Z,88444.00
2023-04-18T00:37:53.302Z,88446.00
2023-04-18T00:38:53.277Z,88444.00
2023-04-18T00:39:53.258Z,88442.00
2023-04-18T00:40:53.225Z,88444.00
2023-04-18T00:41:53.202Z,88444.00
2023-04-18T00:42:53.184Z,88444.00
2023-04-18T00:43:53.337Z,88444.00
2023-04-18T00:44:53.252Z,88442.00
2023-04-18T00:45:53.145Z,88448.00
2023-04-18T00:46:53.107Z,88442.00
2023-04-18T00:47:53.153Z,88444.00
2023-04-18T00:48:53.133Z,88446.00
2023-04-18T00:49:53.161Z,88444.00
2023-04-18T00:50:53.178Z,88444.00
2023-04-18T00:51:53.220Z,88442.00
2023-04-18T00:52:53.238Z,88444.00
2023-04-18T00:53:53.250Z,88442.00
2023-04-18T00:54:53.283Z,88446.00
2023-04-18T00:55:53.295Z,88446.00
2023-04-18T00:56:53.400Z,88446.00
2023-04-18T00:57:53.348Z,88448.00
2023-04-18T00:58:53.362Z,88448.00
2023-04-18T00:59:53.391Z,88448.00
2023-04-18T01:00:53.360Z,88448.00
2023-04-18T01:01:53.567Z,88448.00
2023-04-18T01:02:53.546Z,88446.00
2023-04-18T01:03:53.423Z,88444.00
2023-04-18T01:04:53.277Z,88444.00
2023-04-18T01:05:53.237Z,88444.00
2023-04-18T01:06:53.241Z,88448.00
2023-04-18T01:07:53.199Z,88448.00
2023-04-18T01:08:53.174Z,88446.00
2023-04-18T01:09:53.173Z,88450.00
2023-04-18T01:10:53.131Z,88452.00
2023-04-18T01:11:53.106Z,88450.00
2023-04-18T01:12:53.072Z,88450.00
2023-04-18T01:13:53.050Z,88450.00
2023-04-18T01:14:53.022Z,88448.00
2023-04-18T01:15:53.086Z,88448.00
2023-04-18T01:16:53.073Z,88446.00
2023-04-18T01:17:53.110Z,88442.00
2023-04-18T01:18:53.114Z,88444.00
2023-04-18T01:19:53.130Z,88442.00
2023-04-18T01:20:53.206Z,88442.00
2023-04-18T01:21:53.162Z,88442.00
2023-04-18T01:22:53.198Z,88440.00
2023-04-18T01:23:53.195Z,88442.00
2023-04-18T01:24:53.225Z,88440.00
2023-04-18T01:25:53.237Z,88440.00
2023-04-18T01:26:53.267Z,88436.00
2023-04-18T01:27:53.293Z,88434.00
2023-04-18T01:28:53.310Z,88436.00
2023-04-18T01:29:53.347Z,88434.00
2023-04-18T01:30:53.403Z,88432.00
2023-04-18T01:31:53.405Z,88432.00
2023-04-18T01:32:53.497Z,88430.00
2023-04-18T01:33:53.448Z,88428.00
2023-04-18T01:34:53.473Z,88428.00
2023-04-18T01:35:53.518Z,88424.00
2023-04-18T01:36:53.532Z,88424.00
2023-04-18T01:37:53.556Z,88424.00
2023-04-18T01:38:53.597Z,88422.00
2023-04-18T01:39:53.603Z,88422.00
2023-04-18T01:40:53.640Z,88424.00
2023-04-18T01:41:53.697Z,88424.00
2023-04-18T01:42:53.675Z,88426.00
2023-04-18T01:43:53.697Z,88426.00
2023-04-18T01:44:53.699Z,88424.00
2023-04-18T01:45:53.716Z,88424.00
2023-04-18T01:46:53.855Z,88424.00
2023-04-18T01:47:53.770Z,88424.00
2023-04-18T01:48:53.778Z,88424.00
2023-04-18T01:49:53.801Z,88424.00
2023-04-18T01:50:53.812Z,88426.00
2023-04-18T01:51:53.826Z,88426.00
2023-04-18T01:52:53.852Z,88428.00
2023-04-18T01:53:53.870Z,88426.00
2023-04-18T01:54:53.893Z,88426.00
2023-04-18T01:55:53.938Z,88424.00
2023-04-18T01:56:53.941Z,88424.00
2023-04-18T01:57:53.965Z,88426.00
2023-04-18T01:58:53.998Z,88422.00
2023-04-18T01:59:53.966Z,88422.00
2023-04-18T02:00:53.976Z,88422.00
2023-04-18T02:01:53.966Z,88422.00
2023-04-18T02:02:53.966Z,88422.00
2023-04-18T02:03:54.212Z,88420.00
2023-04-18T02:04:53.836Z,88422.00
2023-04-18T02:05:53.805Z,88422.00
2023-04-18T02:06:53.766Z,88420.00
2023-04-18T02:07:53.740Z,88420.00
2023-04-18T02:08:53.710Z,88420.00
2023-04-18T02:09:53.684Z,88418.00
2023-04-18T02:10:53.656Z,88418.00
2023-04-18T02:11:53.619Z,88420.00
2023-04-18T02:12:53.591Z,88420.00
2023-04-18T02:13:53.619Z,88418.00
2023-04-18T02:14:53.618Z,88420.00
2023-04-18T02:15:53.650Z,88422.00
2023-04-18T02:16:53.734Z,88422.00
2023-04-18T02:17:53.728Z,88422.00
2023-04-18T02:18:53.714Z,88422.00
2023-04-18T02:19:53.735Z,88422.00
2023-04-18T02:20:53.768Z,88420.00
2023-04-18T02:21:53.772Z,88422.00
2023-04-18T02:22:53.796Z,88420.00
2023-04-18T02:23:53.847Z,88418.00
2023-04-18T02:24:53.853Z,88422.00
2023-04-18T02:25:53.868Z,88426.00
2023-04-18T02:26:53.873Z,88424.00
2023-04-18T02:27:53.908Z,88424.00
2023-04-18T02:28:53.938Z,88422.00
2023-04-18T02:29:53.959Z,88422.00
2023-04-18T02:30:53.993Z,88424.00
2023-04-18T02:31:54.053Z,88422.00
2023-04-18T02:32:54.041Z,88422.00
2023-04-18T02:33:54.065Z,88422.00
2023-04-18T02:34:54.086Z,88422.00
2023-04-18T02:35:54.140Z,88424.00
2023-04-18T02:36:54.138Z,88424.00
2023-04-18T02:37:54.175Z,88424.00
2023-04-18T02:38:54.200Z,88422.00
2023-04-18T02:39:54.247Z,88424.00
2023-04-18T02:40:54.248Z,88420.00
2023-04-18T02:41:54.290Z,88424.00
2023-04-18T02:42:54.315Z,88426.00
2023-04-18T02:43:54.323Z,88424.00
2023-04-18T02:44:54.352Z,88424.00
2023-04-18T02:45:54.401Z,88426.00
2023-04-18T02:46:54.350Z,88426.00
2023-04-18T02:47:56.470Z,88424.00
2023-04-18T02:48:54.298Z,88426.00
2023-04-18T02:49:54.277Z,88424.00
2023-04-18T02:50:54.286Z,88424.00
2023-04-18T02:51:54.317Z,88422.00
2023-04-18T02:52:54.328Z,88422.00
2023-04-18T02:53:54.366Z,88420.00
2023-04-18T02:54:54.329Z,88420.00
2023-04-18T02:55:54.298Z,88420.00
2023-04-18T02:56:54.274Z,88420.00
2023-04-18T02:57:54.268Z,88418.00
2023-04-18T02:58:54.225Z,88416.00
2023-04-18T02:59:54.186Z,88413.00
2023-04-18T03:00:54.261Z,88411.00
2023-04-18T03:01:54.165Z,88411.00
2023-04-18T03:02:54.178Z,88411.00
2023-04-18T03:03:54.082Z,88407.00
2023-04-18T03:04:54.083Z,88405.00
2023-04-18T03:05:54.073Z,88405.00
2023-04-18T03:06:54.135Z,88405.00
2023-04-18T03:07:54.176Z,88407.00
2023-04-18T03:08:54.223Z,88407.00
2023-04-18T03:09:54.287Z,88407.00
2023-04-18T03:10:56.102Z,88409.00
2023-04-18T03:11:54.646Z,88409.00
2023-04-18T03:12:54.431Z,88409.00
2023-04-18T03:13:54.472Z,88405.00
2023-04-18T03:14:54.508Z,88405.00
2023-04-18T03:15:54.586Z,88407.00
2023-04-18T03:16:55.397Z,88405.00
2023-04-18T03:17:54.558Z,88403.00
2023-04-18T03:18:54.502Z,88403.00
2023-04-18T03:19:54.512Z,88405.00
2023-04-18T03:20:54.490Z,88405.00
2023-04-18T03:21:54.483Z,88405.00
2023-04-18T03:22:54.476Z,88403.00
2023-04-18T03:23:54.480Z,88401.00
2023-04-18T03:24:54.482Z,88403.00
2023-04-18T03:25:54.485Z,88403.00
2023-04-18T03:26:54.467Z,88403.00
2023-04-18T03:27:54.456Z,88405.00
2023-04-18T03:28:54.454Z,88403.00
2023-04-18T03:29:54.453Z,88399.00
2023-04-18T03:30:54.489Z,88399.00
2023-04-18T03:31:54.465Z,88399.00
2023-04-18T03:32:54.442Z,88399.00
2023-04-18T03:33:54.444Z,88401.00
2023-04-18T03:34:54.435Z,88399.00
2023-04-18T03:35:54.442Z,88401.00
2023-04-18T03:36:54.429Z,88399.00
2023-04-18T03:37:54.444Z,88399.00
2023-04-18T03:38:54.423Z,88399.00
2023-04-18T03:39:54.410Z,88401.00
2023-04-18T03:40:54.403Z,88403.00
2023-04-18T03:41:54.384Z,88399.00
2023-04-18T03:42:54.372Z,88397.00
2023-04-18T03:43:54.384Z,88399.00
2023-04-18T03:44:54.362Z,88397.00
2023-04-18T03:45:54.373Z,88395.00
2023-04-18T03:46:54.348Z,88397.00
2023-04-18T03:47:54.417Z,88397.00
2023-04-18T03:48:54.316Z,88393.00
2023-04-18T03:49:54.319Z,88393.00
2023-04-18T03:50:54.303Z,88393.00
2023-04-18T03:51:54.320Z,88395.00
2023-04-18T03:52:54.305Z,88393.00
2023-04-18T03:53:54.324Z,88391.00
2023-04-18T03:54:54.275Z,88393.00
2023-04-18T03:55:54.272Z,88391.00
2023-04-18T03:56:54.268Z,88393.00
2023-04-18T03:57:54.258Z,88391.00
2023-04-18T03:58:54.237Z,88393.00
2023-04-18T03:59:54.248Z,88395.00
2023-04-18T04:00:54.231Z,88395.00
2023-04-18T04:01:54.310Z,88393.00
2023-04-18T04:02:54.371Z,88393.00
2023-04-18T04:03:54.401Z,88395.00
2023-04-18T04:04:54.238Z,88397.00
2023-04-18T04:05:54.195Z,88397.00
2023-04-18T04:06:54.199Z,88399.00
2023-04-18T04:07:54.152Z,88399.00
2023-04-18T04:08:54.148Z,88399.00
2023-04-18T04:09:54.133Z,88399.00
2023-04-18T04:10:54.131Z,88403.00
2023-04-18T04:11:54.120Z,88403.00
2023-04-18T04:12:54.112Z,88405.00
2023-04-18T04:13:54.100Z,88405.00
2023-04-18T04:14:54.087Z,88401.00
2023-04-18T04:15:54.156Z,88405.00
2023-04-18T04:16:54.080Z,88405.00
2023-04-18T04:17:54.126Z,88405.00
2023-04-18T04:18:54.074Z,88401.00
2023-04-18T04:19:54.055Z,88401.00
2023-04-18T04:20:54.060Z,88403.00
2023-04-18T04:21:54.096Z,88403.00
2023-04-18T04:22:54.063Z,88405.00
2023-04-18T04:23:54.075Z,88407.00
2023-04-18T04:24:54.050Z,88405.00
2023-04-18T04:25:54.046Z,88407.00
2023-04-18T04:26:54.048Z,88409.00
2023-04-18T04:27:54.050Z,88409.00
2023-04-18T04:28:54.048Z,88409.00
2023-04-18T04:29:54.052Z,88411.00
2023-04-18T04:30:54.049Z,88409.00
2023-04-18T04:31:54.116Z,88409.00
2023-04-18T04:32:54.069Z,88409.00
2023-04-18T04:33:54.038Z,88409.00
2023-04-18T04:34:54.038Z,88409.00
2023-04-18T04:35:54.033Z,88409.00
2023-04-18T04:36:54.066Z,88411.00
2023-04-18T04:37:54.135Z,88411.00
2023-04-18T04:38:54.125Z,88413.00
2023-04-18T04:39:54.149Z,88411.00
2023-04-18T04:40:54.183Z,88414.00
2023-04-18T04:41:54.206Z,88413.00
2023-04-18T04:42:54.272Z,88414.00
2023-04-18T04:43:54.275Z,88414.00
2023-04-18T04:44:54.340Z,88414.00
2023-04-18T04:45:54.357Z,88414.00
2023-04-18T04:46:54.406Z,88416.00
2023-04-18T04:47:54.419Z,88414.00
2023-04-18T04:48:54.456Z,88414.00
2023-04-18T04:49:54.480Z,88413.00
2023-04-18T04:50:54.505Z,88414.00
2023-04-18T04:51:54.542Z,88413.00
2023-04-18T04:52:54.575Z,88416.00
2023-04-18T04:53:54.609Z,88416.00
2023-04-18T04:54:54.642Z,88414.00
2023-04-18T04:55:54.675Z,88416.00
2023-04-18T04:56:54.695Z,88414.00
2023-04-18T04:57:54.727Z,88414.00
2023-04-18T04:58:54.779Z,88414.00
2023-04-18T04:59:54.801Z,88416.00
2023-04-18T05:00:54.959Z,88413.00
2023-04-18T05:01:54.886Z,88418.00
2023-04-18T05:02:55.006Z,88418.00
2023-04-18T05:03:55.014Z,88420.00
2023-04-18T05:04:54.989Z,88420.00
2023-04-18T05:05:55.033Z,88420.00
2023-04-18T05:06:55.076Z,88420.00
2023-04-18T05:07:55.113Z,88420.00
2023-04-18T05:08:55.167Z,88424.00
2023-04-18T05:09:55.184Z,88420.00
2023-04-18T05:10:55.207Z,88422.00
2023-04-18T05:11:55.258Z,88424.00
2023-04-18T05:12:55.303Z,88424.00
2023-04-18T05:13:55.291Z,88426.00
2023-04-18T05:14:55.310Z,88428.00
2023-04-18T05:15:55.293Z,88428.00
2023-04-18T05:16:55.306Z,88426.00
2023-04-18T05:17:55.307Z,88432.00
2023-04-18T05:18:55.294Z,88432.00
2023-04-18T05:19:55.301Z,88430.00
2023-04-18T05:20:55.297Z,88432.00
2023-04-18T05:21:55.293Z,88430.00
2023-04-18T05:22:55.298Z,88432.00
2023-04-18T05:23:55.288Z,88432.00
2023-04-18T05:24:55.297Z,88432.00
2023-04-18T05:25:55.283Z,88430.00
2023-04-18T05:26:55.296Z,88432.00
2023-04-18T05:27:55.335Z,88432.00
2023-04-18T05:28:55.374Z,88432.00
2023-04-18T05:29:55.402Z,88434.00
2023-04-18T05:30:55.424Z,88438.00
2023-04-18T05:31:55.384Z,88440.00
2023-04-18T05:32:55.449Z,88444.00
2023-04-18T05:33:55.424Z,88446.00
2023-04-18T05:34:55.378Z,88444.00
2023-04-18T05:35:55.376Z,88442.00
2023-04-18T05:36:55.364Z,88446.00
2023-04-18T05:37:55.372Z,88446.00
2023-04-18T05:38:55.357Z,88446.00
2023-04-18T05:39:55.337Z,88446.00
2023-04-18T05:40:55.336Z,88446.00
2023-04-18T05:41:55.321Z,88448.00
2023-04-18T05:42:55.311Z,88448.00
2023-04-18T05:44:04.676Z,88448.00
2023-04-18T05:44:56.282Z,88448.00
2023-04-18T05:45:57.646Z,88446.00
2023-04-18T05:46:55.682Z,88448.00
2023-04-18T05:47:55.599Z,88448.00
2023-04-18T05:48:55.571Z,88446.00
2023-04-18T05:49:55.643Z,88448.00
2023-04-18T05:50:55.741Z,88446.00
2023-04-18T05:51:55.741Z,88448.00
2023-04-18T05:52:55.785Z,88446.00
2023-04-18T05:53:55.880Z,88442.00
2023-04-18T05:54:55.826Z,88442.00
2023-04-18T05:55:55.824Z,88438.00
2023-04-18T05:56:55.872Z,88438.00
2023-04-18T05:57:55.923Z,88436.00
2023-04-18T05:58:56.005Z,88436.00
2023-04-18T05:59:56.048Z,88438.00
2023-04-18T06:00:56.141Z,88438.00
2023-04-18T06:01:56.218Z,88436.00
2023-04-18T06:02:56.463Z,88442.00
2023-04-18T06:03:56.409Z,88440.00
2023-04-18T06:04:56.459Z,88440.00
2023-04-18T06:05:56.352Z,88446.00
2023-04-18T06:06:56.304Z,88446.00
2023-04-18T06:07:56.325Z,88444.00
2023-04-18T06:08:56.324Z,88440.00
2023-04-18T06:09:56.335Z,88446.00
2023-04-18T06:10:56.341Z,88446.00
2023-04-18T06:11:56.340Z,88444.00
2023-04-18T06:12:56.328Z,88444.00
2023-04-18T06:13:56.359Z,88446.00
2023-04-18T06:14:56.346Z,88444.00
2023-04-18T06:15:56.373Z,88444.00
2023-04-18T06:16:56.353Z,88448.00
2023-04-18T06:17:56.451Z,88448.00
2023-04-18T06:18:56.986Z,88446.00
2023-04-18T06:19:56.481Z,88444.00
2023-04-18T06:20:56.586Z,88444.00
2023-04-18T06:21:56.605Z,88444.00
2023-04-18T06:22:56.657Z,88442.00
2023-04-18T06:23:56.782Z,88444.00
2023-04-18T06:24:56.799Z,88444.00
2023-04-18T06:25:56.849Z,88446.00
2023-04-18T06:26:56.960Z,88446.00
2023-04-18T06:27:56.984Z,88446.00
2023-04-18T06:28:57.069Z,88446.00
2023-04-18T06:29:57.120Z,88448.00
2023-04-18T06:30:57.200Z,88450.00
2023-04-18T06:31:57.279Z,88448.00
2023-04-18T06:32:57.253Z,88450.00
2023-04-18T06:33:57.232Z,88450.00
2023-04-18T06:34:57.303Z,88450.00
2023-04-18T06:35:57.260Z,88450.00
2023-04-18T06:36:57.256Z,88450.00
2023-04-18T06:37:57.254Z,88452.00
2023-04-18T06:38:57.327Z,88454.00
2023-04-18T06:39:57.395Z,88452.00
2023-04-18T06:40:57.268Z,88450.00
2023-04-18T06:41:57.271Z,88450.00
2023-04-18T06:42:57.270Z,88448.00
2023-04-18T06:44:02.837Z,88448.00
2023-04-18T06:44:58.260Z,88450.00
2023-04-18T06:45:57.303Z,88448.00
2023-04-18T06:46:57.259Z,88446.00
2023-04-18T06:47:57.319Z,88446.00
2023-04-18T06:48:57.317Z,88446.00
2023-04-18T06:49:57.250Z,88446.00
2023-04-18T06:50:57.254Z,88442.00
2023-04-18T06:51:57.248Z,88442.00
2023-04-18T06:52:57.263Z,88444.00
2023-04-18T06:53:57.247Z,88442.00
2023-04-18T06:54:57.242Z,88442.00
2023-04-18T06:55:57.238Z,88442.00
2023-04-18T06:56:57.248Z,88444.00
2023-04-18T06:57:57.243Z,88444.00
2023-04-18T06:58:57.252Z,88444.00
2023-04-18T06:59:57.248Z,88446.00
2023-04-18T07:00:57.289Z,88444.00
2023-04-18T07:01:57.277Z,88442.00
2023-04-18T07:02:57.397Z,88444.00
2023-04-18T07:03:57.413Z,88442.00
2023-04-18T07:04:57.329Z,88442.00
2023-04-18T07:05:57.347Z,88442.00
2023-04-18T07:06:57.391Z,88444.00
2023-04-18T07:07:57.436Z,88444.00
2023-04-18T07:08:57.479Z,88444.00
2023-04-18T07:09:57.512Z,88444.00
2023-04-18T07:10:57.548Z,88442.00
2023-04-18T07:11:57.671Z,88444.00
2023-04-18T07:12:57.642Z,88446.00
2023-04-18T07:13:57.682Z,88444.00
2023-04-18T07:14:57.734Z,88442.00
2023-04-18T07:15:57.784Z,88442.00
2023-04-18T07:16:57.900Z,88440.00
2023-04-18T07:17:57.879Z,88440.00
2023-04-18T07:18:57.902Z,88440.00
2023-04-18T07:19:57.932Z,88438.00
2023-04-18T07:20:57.981Z,88436.00
2023-04-18T07:21:57.990Z,88438.00
2023-04-18T07:22:57.994Z,88438.00
2023-04-18T07:23:58.009Z,88436.00
2023-04-18T07:24:57.994Z,88440.00
2023-04-18T07:25:57.999Z,88440.00
2023-04-18T07:26:58.007Z,88440.00
2023-04-18T07:27:58.097Z,88438.00
2023-04-18T07:28:58.009Z,88438.00
2023-04-18T07:29:57.999Z,88440.00
2023-04-18T07:30:58.056Z,88440.00
2023-04-18T07:31:57.993Z,88444.00
2023-04-18T07:32:58.006Z,88444.00
2023-04-18T07:33:58.004Z,88444.00
2023-04-18T07:34:58.007Z,88442.00
2023-04-18T07:35:58.023Z,88444.00
2023-04-18T07:36:58.022Z,88446.00
2023-04-18T07:37:58.017Z,88448.00
2023-04-18T07:38:58.028Z,88446.00
2023-04-18T07:39:58.040Z,88454.00
2023-04-18T07:40:58.008Z,88448.00
2023-04-18T07:41:58.009Z,88450.00
2023-04-18T07:42:58.002Z,88450.00
2023-04-18T07:43:58.147Z,88448.00
2023-04-18T07:44:57.989Z,88446.00
2023-04-18T07:45:58.034Z,88450.00
2023-04-18T07:46:57.964Z,88446.00
2023-04-18T07:47:57.979Z,88448.00
2023-04-18T07:48:57.955Z,88446.00
2023-04-18T07:49:57.927Z,88452.00
2023-04-18T07:50:57.928Z,88450.00
2023-04-18T07:51:57.917Z,88454.00
2023-04-18T07:52:57.962Z,88454.00
2023-04-18T07:53:57.994Z,88454.00
2023-04-18T07:54:58.035Z,88454.00
2023-04-18T07:55:58.070Z,88454.00
2023-04-18T07:56:58.116Z,88454.00
2023-04-18T07:57:58.108Z,88454.00
2023-04-18T07:58:58.095Z,88454.00
2023-04-18T07:59:58.256Z,88452.00
2023-04-18T08:00:58.043Z,88456.00
2023-04-18T08:01:58.073Z,88452.00
2023-04-18T08:02:58.173Z,88452.00
2023-04-18T08:03:58.059Z,88454.00
2023-04-18T08:04:58.239Z,88454.00
2023-04-18T08:05:57.954Z,88454.00
2023-04-18T08:06:57.908Z,88456.00
2023-04-18T08:07:57.882Z,88456.00
2023-04-18T08:08:57.862Z,88454.00
2023-04-18T08:09:57.836Z,88454.00
2023-04-18T08:10:57.814Z,88454.00
2023-04-18T08:11:57.780Z,88454.00
2023-04-18T08:12:57.756Z,88454.00
2023-04-18T08:13:57.717Z,88454.00
2023-04-18T08:14:57.715Z,88454.00
2023-04-18T08:15:57.849Z,88452.00
2023-04-18T08:16:57.726Z,88452.00
2023-04-18T08:17:57.780Z,88452.00
2023-04-18T08:18:57.798Z,88450.00
2023-04-18T08:19:57.842Z,88446.00
2023-04-18T08:20:57.872Z,88450.00
2023-04-18T08:21:57.907Z,88450.00
2023-04-18T08:23:07.552Z,88448.00
2023-04-18T08:23:58.893Z,88448.00
2023-04-18T08:25:05.059Z,88452.00
2023-04-18T08:25:58.872Z,88450.00
2023-04-18T08:26:57.832Z,88450.00
2023-04-18T08:27:57.813Z,88448.00
2023-04-18T08:28:57.813Z,88452.00
2023-04-18T08:29:57.786Z,88452.00
2023-04-18T08:30:57.745Z,88450.00
2023-04-18T08:31:57.931Z,88448.00
2023-04-18T08:32:57.737Z,88446.00
2023-04-18T08:33:57.688Z,88444.00
2023-04-18T08:34:57.658Z,88448.00
2023-04-18T08:35:57.628Z,88446.00
2023-04-18T08:36:57.606Z,88444.00
2023-04-18T08:37:57.563Z,88442.00
2023-04-18T08:38:57.524Z,88440.00
2023-04-18T08:39:57.525Z,88442.00
2023-04-18T08:40:57.466Z,88442.00
2023-04-18T08:41:57.449Z,88442.00
2023-04-18T08:42:57.410Z,88442.00
2023-04-18T08:43:57.386Z,88444.00
2023-04-18T08:44:57.368Z,88444.00
2023-04-18T08:45:57.371Z,88446.00
2023-04-18T08:46:57.309Z,88444.00
2023-04-18T08:47:57.355Z,88452.00
2023-04-18T08:48:57.248Z,88444.00
2023-04-18T08:49:57.238Z,88448.00
2023-04-18T08:50:57.240Z,88444.00
2023-04-18T08:51:57.245Z,88446.00
2023-04-18T08:52:57.253Z,88444.00
2023-04-18T08:53:57.281Z,88450.00
2023-04-18T08:54:57.242Z,88448.00
2023-04-18T08:55:57.420Z,88446.00
2023-04-18T08:56:57.180Z,88444.00
2023-04-18T08:57:57.148Z,88446.00
2023-04-18T08:58:57.115Z,88444.00
2023-04-18T08:59:57.089Z,88448.00
2023-04-18T09:00:57.124Z,88448.00
2023-04-18T09:01:57.260Z,88446.00
2023-04-18T09:02:57.430Z,88450.00
2023-04-18T09:03:57.059Z,88446.00
2023-04-18T09:04:56.929Z,88448.00
2023-04-18T09:05:56.895Z,88448.00
2023-04-18T09:06:56.872Z,88446.00
2023-04-18T09:07:56.828Z,88444.00
2023-04-18T09:08:56.809Z,88448.00
2023-04-18T09:09:56.780Z,88444.00
2023-04-18T09:10:56.735Z,88444.00
2023-04-18T09:11:56.710Z,88444.00
2023-04-18T09:12:56.703Z,88444.00
2023-04-18T09:13:56.705Z,88444.00
2023-04-18T09:14:56.744Z,88442.00
2023-04-18T09:15:56.714Z,88442.00
2023-04-18T09:16:56.744Z,88442.00
2023-04-18T09:17:56.811Z,88442.00
2023-04-18T09:18:56.736Z,88444.00
2023-04-18T09:19:56.927Z,88444.00
2023-04-18T09:20:56.744Z,88440.00
2023-04-18T09:21:56.689Z,88442.00
2023-04-18T09:22:56.678Z,88440.00
2023-04-18T09:23:56.623Z,88440.00
2023-04-18T09:24:56.586Z,88442.00
2023-04-18T09:25:56.565Z,88442.00
2023-04-18T09:26:56.518Z,88438.00
2023-04-18T09:27:56.489Z,88440.00
2023-04-18T09:28:56.453Z,88438.00
2023-04-18T09:29:57.935Z,88440.00
2023-04-18T09:30:56.416Z,88438.00
2023-04-18T09:31:56.360Z,88440.00
2023-04-18T09:32:56.368Z,88440.00
2023-04-18T09:33:56.330Z,88440.00
2023-04-18T09:34:56.269Z,88440.00
2023-04-18T09:35:56.311Z,88442.00
2023-04-18T09:36:56.248Z,88438.00
2023-04-18T09:37:56.205Z,88440.00
2023-04-18T09:38:57.040Z,88438.00
2023-04-18T09:39:56.145Z,88438.00
2023-04-18T09:40:56.140Z,88440.00
2023-04-18T09:41:56.135Z,88438.00
2023-04-18T09:42:56.125Z,88438.00
2023-04-18T09:43:56.081Z,88438.00
2023-04-18T09:44:56.942Z,88436.00
2023-04-18T09:45:56.038Z,88438.00
2023-04-18T09:46:56.021Z,88440.00
2023-04-18T09:47:56.001Z,88438.00
2023-04-18T09:48:55.916Z,88440.00
2023-04-18T09:49:55.876Z,88442.00
2023-04-18T09:50:55.856Z,88438.00
2023-04-18T09:51:55.848Z,88438.00
2023-04-18T09:52:55.788Z,88438.00
2023-04-18T09:53:55.755Z,88440.00
2023-04-18T09:54:55.740Z,88438.00
2023-04-18T09:55:57.611Z,88440.00
2023-04-18T09:56:55.653Z,88440.00
2023-04-18T09:57:55.622Z,88444.00
2023-04-18T09:58:55.611Z,88440.00
2023-04-18T09:59:55.594Z,88440.00
2023-04-18T10:00:55.563Z,88438.00
2023-04-18T10:01:55.602Z,88436.00
2023-04-18T10:02:55.572Z,88438.00
2023-04-18T10:03:55.524Z,88438.00
2023-04-18T10:04:55.510Z,88434.00
2023-04-18T10:05:57.690Z,88434.00
2023-04-18T10:06:55.384Z,88436.00
2023-04-18T10:07:55.360Z,88438.00
2023-04-18T10:08:55.310Z,88440.00
2023-04-18T10:09:55.306Z,88440.00
2023-04-18T10:10:55.265Z,88440.00
2023-04-18T10:11:55.229Z,88438.00
2023-04-18T10:12:55.204Z,88438.00
2023-04-18T10:13:55.167Z,88438.00
2023-04-18T10:14:55.130Z,88438.00
2023-04-18T10:15:55.112Z,88438.00
2023-04-18T10:16:55.062Z,88436.00
2023-04-18T10:18:04.331Z,88432.00
2023-04-18T10:18:55.998Z,88434.00
2023-04-18T10:19:54.979Z,88432.00
2023-04-18T10:20:54.942Z,88430.00
2023-04-18T10:21:54.918Z,88434.00
2023-04-18T10:22:54.872Z,88432.00
2023-04-18T10:23:54.844Z,88428.00
2023-04-18T10:24:54.812Z,88430.00
2023-04-18T10:25:54.782Z,88428.00
2023-04-18T10:26:54.748Z,88430.00
2023-04-18T10:27:54.712Z,88426.00
2023-04-18T10:28:55.058Z,88430.00
2023-04-18T10:29:54.642Z,88428.00
2023-04-18T10:30:54.617Z,88426.00
2023-04-18T10:31:54.665Z,88428.00
2023-04-18T10:32:54.612Z,88426.00
2023-04-18T10:34:03.888Z,88426.00
2023-04-18T10:34:54.468Z,88428.00
2023-04-18T10:35:54.462Z,88426.00
2023-04-18T10:36:54.396Z,88428.00
2023-04-18T10:37:54.367Z,88426.00
2023-04-18T10:38:54.327Z,88424.00
2023-04-18T10:39:54.297Z,88424.00
2023-04-18T10:40:54.266Z,88422.00
2023-04-18T10:41:54.232Z,88422.00
2023-04-18T10:42:54.214Z,88420.00
2023-04-18T10:43:54.204Z,88420.00
2023-04-18T10:44:54.151Z,88420.00
2023-04-18T10:45:54.138Z,88422.00
2023-04-18T10:46:54.132Z,88420.00
2023-04-18T10:47:54.083Z,88416.00
2023-04-18T10:48:54.035Z,88420.00
2023-04-18T10:49:53.988Z,88416.00
2023-04-18T10:50:53.956Z,88418.00
2023-04-18T10:51:53.924Z,88416.00
2023-04-18T10:52:53.886Z,88413.00
2023-04-18T10:53:53.856Z,88413.00
2023-04-18T10:54:53.819Z,88413.00
2023-04-18T10:55:53.799Z,88414.00
2023-04-18T10:56:53.783Z,88413.00
2023-04-18T10:57:53.729Z,88414.00
2023-04-18T10:58:53.695Z,88413.00
2023-04-18T10:59:53.638Z,88409.00
2023-04-18T11:00:53.626Z,88409.00
2023-04-18T11:01:53.596Z,88411.00
2023-04-18T11:02:53.821Z,88407.00
2023-04-18T11:03:53.648Z,88407.00
2023-04-18T11:04:53.458Z,88407.00
2023-04-18T11:05:53.416Z,88405.00
2023-04-18T11:06:53.395Z,88405.00
2023-04-18T11:07:53.374Z,88399.00
2023-04-18T11:08:53.324Z,88401.00
2023-04-18T11:09:53.292Z,88397.00
2023-04-18T11:10:53.254Z,88397.00
2023-04-18T11:11:53.285Z,88395.00
2023-04-18T11:12:53.230Z,88397.00
2023-04-18T11:13:53.184Z,88395.00
2023-04-18T11:14:53.138Z,88395.00
2023-04-18T11:15:53.112Z,88395.00
2023-04-18T11:16:53.119Z,88393.00
2023-04-18T11:17:53.083Z,88395.00
2023-04-18T11:18:53.017Z,88393.00
2023-04-18T11:19:52.974Z,88389.00
2023-04-18T11:20:52.934Z,88387.00
2023-04-18T11:21:52.932Z,88387.00
2023-04-18T11:22:52.872Z,88383.00
2023-04-18T11:23:52.854Z,88383.00
2023-04-18T11:24:52.795Z,88387.00
2023-04-18T11:25:52.778Z,88389.00
2023-04-18T11:26:52.722Z,88389.00
2023-04-18T11:27:52.691Z,88385.00
2023-04-18T11:28:52.665Z,88387.00
2023-04-18T11:29:52.600Z,88393.00
2023-04-18T11:30:52.566Z,88391.00
2023-04-18T11:31:53.034Z,88393.00
2023-04-18T11:32:52.529Z,88391.00
2023-04-18T11:33:52.473Z,88391.00
2023-04-18T11:34:52.395Z,88393.00
2023-04-18T11:35:52.362Z,88391.00
2023-04-18T11:36:52.332Z,88391.00
2023-04-18T11:37:52.287Z,88387.00
2023-04-18T11:38:52.252Z,88391.00
2023-04-18T11:39:52.208Z,88387.00
2023-04-18T11:40:52.170Z,88389.00
2023-04-18T11:41:52.161Z,88389.00
2023-04-18T11:42:52.102Z,88391.00
2023-04-18T11:43:52.094Z,88389.00
2023-04-18T11:44:52.043Z,88389.00